Nevsehir, Turkey
Current Conditions -  °F | °C
As of 4:20 PM on Friday 24 Oct 2014 (Local Time) from LTAZ Reporting Station
Broken Clouds Broken Clouds  
Wind Chill: 17°   Ceiling: 10000
Heat Index: 17°   Visibility: 6mi
Dew Point: 10°   Wind: 8mph
Humidity: 63%   Direction: 120°ESE
Pressure: 30.06"   Gusts: NA
Location:  38.63°N, 34.72°E
Report Text: LTAZ 241320Z 12007KT 9999 SCT040 BKN100 17/10 Q1018
Loading
Personal Weather Stations






























Interactive Weather Map
Tropical Storm Tracking
New forecast layout! Learn more

10-Day Weather Forecast

Advertisements
Track Severe Weather on mobile